createdAt,value
2019-04-11T00:00:52.000Z,101815.97
2019-04-11T00:03:21.849Z,101813.78
2019-04-11T00:05:52.888Z,101818.48
2019-04-11T00:08:22.816Z,101816.43
2019-04-11T00:10:53.539Z,101817.66
2019-04-11T00:13:26.737Z,101821.30
2019-04-11T00:15:55.041Z,101813.37
2019-04-11T00:18:25.022Z,101816.45
2019-04-11T00:20:54.757Z,101818.22
2019-04-11T00:23:24.556Z,101818.91
2019-04-11T00:25:54.306Z,101821.91
2019-04-11T00:28:24.003Z,101817.14
2019-04-11T00:30:54.665Z,101815.77
2019-04-11T00:33:24.790Z,101813.47
2019-04-11T00:35:55.655Z,101810.54
2019-04-11T00:38:25.667Z,101820.02
2019-04-11T00:40:55.613Z,101820.89
2019-04-11T00:43:31.720Z,101819.42
2019-04-11T00:45:56.759Z,101821.33
2019-04-11T00:48:26.498Z,101820.89
2019-04-11T00:50:56.213Z,101829.26
2019-04-11T00:53:25.905Z,101834.63
2019-04-11T00:55:55.775Z,101828.45
2019-04-11T00:58:25.750Z,101835.95
2019-04-11T01:00:55.584Z,101826.84
2019-04-11T01:03:26.407Z,101830.30
2019-04-11T01:05:56.677Z,101834.40
2019-04-11T01:08:27.359Z,101829.56
2019-04-11T01:10:57.419Z,101830.15
2019-04-11T01:13:39.150Z,101834.69
2019-04-11T01:16:00.737Z,101835.28
2019-04-11T01:18:30.478Z,101829.33
2019-04-11T01:21:00.256Z,101836.61
2019-04-11T01:23:31.113Z,101841.88
2019-04-11T01:26:01.164Z,101839.31
2019-04-11T01:28:31.053Z,101836.16
2019-04-11T01:31:05.335Z,101837.33
2019-04-11T01:33:35.924Z,101835.70
2019-04-11T01:36:06.991Z,101838.05
2019-04-11T01:38:38.720Z,101842.45
2019-04-11T01:41:08.552Z,101840.09
2019-04-11T01:43:38.188Z,101844.50
2019-04-11T01:46:07.969Z,101842.73
2019-04-11T01:48:39.623Z,101839.00
2019-04-11T01:51:09.756Z,101838.41
2019-04-11T01:53:41.009Z,101845.16
2019-04-11T01:56:12.551Z,101842.10
2019-04-11T01:58:42.716Z,101838.05
2019-04-11T02:01:20.937Z,101840.27
2019-04-11T02:04:01.560Z,101843.78
2019-04-11T02:06:32.019Z,101846.55
2019-04-11T02:09:02.318Z,101845.67
2019-04-11T02:11:32.008Z,101847.05
2019-04-11T02:14:10.424Z,101854.09
2019-04-11T02:16:33.161Z,101852.86
2019-04-11T02:19:03.685Z,101858.20
2019-04-11T02:21:33.716Z,101863.32
2019-04-11T02:24:03.703Z,101864.55
2019-04-11T02:26:35.664Z,101860.53
2019-04-11T02:29:05.616Z,101863.16
2019-04-11T02:31:36.874Z,101865.90
2019-04-11T02:34:08.628Z,101867.19
2019-04-11T02:36:38.617Z,101871.58
2019-04-11T02:39:14.934Z,101872.30
2019-04-11T02:41:44.350Z,101873.06
2019-04-11T02:44:31.982Z,101868.38
2019-04-11T02:46:55.799Z,101879.71
2019-04-11T02:49:19.095Z,101873.38
2019-04-11T02:51:49.455Z,101874.69
2019-04-11T02:54:22.352Z,101881.56
2019-04-11T02:56:54.628Z,101875.32
2019-04-11T02:59:25.407Z,101880.38
2019-04-11T03:01:55.837Z,101880.25
2019-04-11T03:04:26.942Z,101875.76
2019-04-11T03:06:58.130Z,101882.13
2019-04-11T03:09:31.026Z,101879.78
2019-04-11T03:12:01.080Z,101877.73
2019-04-11T03:14:46.113Z,101881.25
2019-04-11T03:17:12.802Z,101884.67
2019-04-11T03:19:49.249Z,101884.52
2019-04-11T03:22:07.877Z,101890.22
2019-04-11T03:24:40.486Z,101891.00
2019-04-11T03:27:11.964Z,101887.48
2019-04-11T03:29:43.092Z,101891.77
2019-04-11T03:33:00.624Z,101892.64
2019-04-11T03:37:43.047Z,101891.16
2019-04-11T03:40:07.837Z,101891.48
2019-04-11T03:42:38.247Z,101892.64
2019-04-11T03:45:15.132Z,101898.42
2019-04-11T03:47:38.902Z,101901.37
2019-04-11T03:50:03.813Z,101903.15
2019-04-11T03:52:30.408Z,101903.03
2019-04-11T03:55:03.946Z,101910.39
2019-04-11T03:57:34.108Z,101906.39
2019-04-11T04:00:09.963Z,101906.32
2019-04-11T04:02:41.163Z,101906.92
2019-04-11T04:05:13.153Z,101903.80
2019-04-11T04:07:44.371Z,101912.41
2019-04-11T04:10:15.849Z,101908.07
2019-04-11T04:12:48.047Z,101912.74
2019-04-11T04:15:42.079Z,101917.41
2019-04-11T04:18:05.865Z,101917.52
2019-04-11T04:20:57.617Z,101916.64
2019-04-11T04:23:33.567Z,101927.90
2019-04-11T04:26:05.477Z,101924.47
2019-04-11T04:28:35.753Z,101930.63
2019-04-11T04:31:06.926Z,101937.87
2019-04-11T04:33:39.754Z,101939.72
2019-04-11T04:36:11.072Z,101943.00
2019-04-11T04:38:42.253Z,101939.58
2019-04-11T04:41:28.144Z,101947.80
2019-04-11T04:43:48.319Z,101947.48
2019-04-11T04:46:34.841Z,101949.27
2019-04-11T04:48:51.387Z,101947.84
2019-04-11T04:51:24.085Z,101957.46
2019-04-11T04:53:52.473Z,101959.91
2019-04-11T04:56:26.575Z,101958.95
2019-04-11T04:58:54.083Z,101955.47
2019-04-11T05:01:24.050Z,101960.84
2019-04-11T05:03:54.115Z,101976.26
2019-04-11T05:06:24.280Z,101970.84
2019-04-11T05:08:56.076Z,101976.73
2019-04-11T05:11:26.321Z,101974.30
2019-04-11T05:13:56.705Z,101973.77
2019-04-11T05:16:26.689Z,101979.33
2019-04-11T05:18:56.670Z,101978.08
2019-04-11T05:21:27.883Z,101980.39
2019-04-11T05:23:58.500Z,101984.73
2019-04-11T05:26:28.564Z,101989.09
2019-04-11T05:28:58.348Z,101978.11
2019-04-11T05:31:28.050Z,101983.55
2019-04-11T05:33:57.923Z,101990.97
2019-04-11T05:36:28.310Z,101991.75
2019-04-11T05:38:58.300Z,101987.77
2019-04-11T05:41:29.327Z,101989.06
2019-04-11T05:44:04.268Z,101993.85
2019-04-11T05:46:40.866Z,101995.73
2019-04-11T05:49:07.595Z,101998.38
2019-04-11T05:51:43.601Z,101996.88
2019-04-11T05:54:09.568Z,101999.18
2019-04-11T05:56:41.424Z,102003.71
2019-04-11T05:59:17.254Z,101998.36
2019-04-11T06:01:49.018Z,102003.52
2019-04-11T06:04:23.628Z,101997.64
2019-04-11T06:06:58.343Z,102000.85
2019-04-11T06:09:35.320Z,102011.06
2019-04-11T06:12:21.225Z,102006.38
2019-04-11T06:14:52.589Z,102013.20
2019-04-11T06:17:23.907Z,102013.42
2019-04-11T06:20:03.985Z,102010.24
2019-04-11T06:22:35.933Z,102017.50
2019-04-11T06:25:11.048Z,102022.12
2019-04-11T06:27:42.930Z,102022.04
2019-04-11T06:30:15.924Z,102029.33
2019-04-11T06:33:04.535Z,102028.30
2019-04-11T06:35:39.960Z,102028.08
2019-04-11T06:38:18.531Z,102029.36
2019-04-11T06:40:57.803Z,102028.39
2019-04-11T06:43:47.952Z,102028.09
2019-04-11T06:46:20.832Z,102035.21
2019-04-11T06:49:00.235Z,102027.66
2019-04-11T06:51:32.446Z,102036.03
2019-04-11T06:54:19.060Z,102040.30
2019-04-11T06:56:52.078Z,102044.12
2019-04-11T06:59:23.936Z,102042.42
2019-04-11T07:01:55.056Z,102036.24
2019-04-11T07:04:29.492Z,102047.93
2019-04-11T07:07:02.106Z,102044.80
2019-04-11T07:09:39.491Z,102045.58
2019-04-11T07:12:17.665Z,102049.00
2019-04-11T07:15:02.457Z,102045.65
2019-04-11T07:17:50.368Z,102041.54
2019-04-11T07:20:37.903Z,102046.22
2019-04-11T07:23:26.437Z,102051.00
2019-04-11T07:25:58.731Z,102041.70
2019-04-11T07:28:37.199Z,102044.37
2019-04-11T07:31:06.922Z,102044.83
2019-04-11T07:33:38.481Z,102044.23
2019-04-11T07:36:25.508Z,102046.23
2019-04-11T07:39:07.866Z,102049.72
2019-04-11T07:41:38.938Z,102051.70
2019-04-11T07:44:10.585Z,102047.53
2019-04-11T07:46:47.251Z,102056.67
2019-04-11T07:49:35.386Z,102054.48
2019-04-11T07:52:07.038Z,102049.55
2019-04-11T07:54:37.039Z,102053.33
2019-04-11T07:57:12.893Z,102052.80
2019-04-11T07:59:42.688Z,102052.52
2019-04-11T08:02:23.926Z,102061.33
2019-04-11T08:05:04.455Z,102052.45
2019-04-11T08:07:36.007Z,102064.63
2019-04-11T08:10:12.494Z,102064.52
2019-04-11T08:12:42.475Z,102065.36
2019-04-11T08:15:19.953Z,102056.55
2019-04-11T08:17:50.093Z,102063.74
2019-04-11T08:20:37.494Z,102067.96
2019-04-11T08:23:07.595Z,102069.45
2019-04-11T08:25:55.819Z,102069.23
2019-04-11T08:28:26.925Z,102072.36
2019-04-11T08:31:01.572Z,102072.19
2019-04-11T08:33:33.026Z,102068.01
2019-04-11T08:36:10.313Z,102068.47
2019-04-11T08:38:40.482Z,102068.27
2019-04-11T08:41:30.157Z,102061.57
2019-04-11T08:44:00.044Z,102068.88
2019-04-11T08:46:37.572Z,102071.78
2019-04-11T08:49:11.720Z,102074.42
2019-04-11T08:51:43.245Z,102071.16
2019-04-11T08:54:19.496Z,102068.14
2019-04-11T08:56:49.473Z,102068.41
2019-04-11T08:59:37.803Z,102073.00
2019-04-11T09:02:08.718Z,102071.36
2019-04-11T09:05:05.001Z,102066.77
2019-04-11T09:07:29.766Z,102063.87
2019-04-11T09:10:17.965Z,102071.49
2019-04-11T09:12:58.571Z,102070.29
2019-04-11T09:15:30.134Z,102075.80
2019-04-11T09:18:05.680Z,102070.11
2019-04-11T09:20:40.156Z,102069.92
2019-04-11T09:23:11.343Z,102067.61
2019-04-11T09:25:59.418Z,102072.29
2019-04-11T09:28:30.863Z,102067.17
2019-04-11T09:31:08.914Z,102064.51
2019-04-11T09:33:55.466Z,102057.70
2019-04-11T09:36:36.915Z,102064.48
2019-04-11T09:39:21.329Z,102060.49
2019-04-11T09:42:11.702Z,102052.94
2019-04-11T09:44:47.125Z,102062.48
2019-04-11T09:47:18.512Z,102057.93
2019-04-11T09:49:53.703Z,102060.97
2019-04-11T09:52:28.956Z,102052.95
2019-04-11T09:55:00.924Z,102051.48
2019-04-11T09:57:41.989Z,102054.65
2019-04-11T10:00:21.243Z,102057.42
2019-04-11T10:02:58.626Z,102050.82
2019-04-11T10:05:34.109Z,102045.90
2019-04-11T10:08:03.808Z,102052.53
2019-04-11T10:10:51.202Z,102051.22
2019-04-11T10:13:24.815Z,102052.41
2019-04-11T10:16:09.574Z,102056.12
2019-04-11T10:18:57.797Z,102051.93
2019-04-11T10:21:29.358Z,102053.42
2019-04-11T10:24:01.021Z,102056.33
2019-04-11T10:26:32.487Z,102047.32
2019-04-11T10:29:20.020Z,102044.28
2019-04-11T10:31:54.850Z,102037.52
2019-04-11T10:34:26.300Z,102042.98
2019-04-11T10:36:57.657Z,102037.17
2019-04-11T10:39:29.213Z,102038.17
2019-04-11T10:42:00.604Z,102037.20
2019-04-11T10:44:34.329Z,102046.84
2019-04-11T10:47:09.863Z,102037.81
2019-04-11T10:49:42.163Z,102034.30
2019-04-11T10:52:22.645Z,102038.78
2019-04-11T10:55:06.107Z,102041.16
2019-04-11T10:57:38.245Z,102053.72
2019-04-11T11:00:17.362Z,102050.89
2019-04-11T11:02:55.743Z,102048.41
2019-04-11T11:05:28.306Z,102059.84
2019-04-11T11:08:02.644Z,102051.48
2019-04-11T11:10:33.907Z,102055.62
2019-04-11T11:13:21.662Z,102050.61
2019-04-11T11:15:53.153Z,102054.70
2019-04-11T11:19:03.210Z,102048.61
2019-04-11T11:21:09.255Z,102042.11
2019-04-11T11:23:38.849Z,102048.31
2019-04-11T11:26:13.082Z,102053.56
2019-04-11T11:29:07.091Z,102052.56
2019-04-11T11:31:36.790Z,102055.31
2019-04-11T11:34:09.306Z,102051.90
2019-04-11T11:36:54.969Z,102050.06
2019-04-11T11:39:31.127Z,102051.02
2019-04-11T11:42:19.831Z,102051.77
2019-04-11T11:44:57.271Z,102051.34
2019-04-11T11:47:47.010Z,102046.59
2019-04-11T11:50:21.479Z,102052.68
2019-04-11T11:52:59.523Z,102056.75
2019-04-11T11:55:31.507Z,102042.36
2019-04-11T11:58:06.672Z,102048.55
2019-04-11T12:00:36.804Z,102043.91
2019-04-11T12:03:17.042Z,102044.09
2019-04-11T12:05:53.681Z,102044.61
2019-04-11T12:08:25.052Z,102031.84
2019-04-11T12:10:57.503Z,102035.06
2019-04-11T12:13:40.897Z,102024.44
2019-04-11T12:16:16.014Z,102043.02
2019-04-11T12:18:55.133Z,102042.50
2019-04-11T12:21:36.751Z,102043.60
2019-04-11T12:24:18.074Z,102033.95
2019-04-11T12:26:52.248Z,102043.31
2019-04-11T12:29:24.106Z,102041.26
2019-04-11T12:31:58.473Z,102025.08
2019-04-11T12:34:36.698Z,102022.72
2019-04-11T12:37:08.543Z,102038.80
2019-04-11T12:39:46.024Z,102033.67
2019-04-11T12:42:20.319Z,102020.31
2019-04-11T12:45:08.019Z,102023.31
2019-04-11T12:47:39.282Z,102024.69
2019-04-11T12:50:27.307Z,102025.38
2019-04-11T12:52:58.651Z,102017.30
2019-04-11T12:55:32.979Z,102026.62
2019-04-11T12:58:10.358Z,102026.10
2019-04-11T13:00:49.248Z,102030.36
2019-04-11T13:03:37.144Z,102023.48
2019-04-11T13:06:20.510Z,102015.68
2019-04-11T13:09:00.175Z,102011.41
2019-04-11T13:11:31.608Z,102009.09
2019-04-11T13:14:01.197Z,101998.12
2019-04-11T13:16:30.978Z,102009.56
2019-04-11T13:19:02.434Z,102013.37
2019-04-11T13:21:33.841Z,102003.70
2019-04-11T13:24:05.136Z,101996.98
2019-04-11T13:26:52.757Z,102000.78
2019-04-11T13:29:22.264Z,101997.41
2019-04-11T13:31:51.766Z,102004.55
2019-04-11T13:34:23.256Z,102001.75
2019-04-11T13:37:10.461Z,102005.19
2019-04-11T13:39:40.181Z,102002.08
2019-04-11T13:42:29.977Z,102009.11
2019-04-11T13:44:59.756Z,102001.23
2019-04-11T13:47:43.338Z,102000.03
2019-04-11T13:50:16.765Z,101990.44
2019-04-11T13:52:58.900Z,101991.64
2019-04-11T13:55:28.625Z,101992.91
2019-04-11T13:58:16.041Z,101996.67
2019-04-11T14:00:47.850Z,101991.72
2019-04-11T14:03:20.021Z,102000.44
2019-04-11T14:05:50.428Z,101984.73
2019-04-11T14:08:30.341Z,101982.00
2019-04-11T14:11:10.467Z,101979.98
2019-04-11T14:13:41.977Z,101973.05
2019-04-11T14:16:13.420Z,101976.78
2019-04-11T14:19:01.524Z,101987.95
2019-04-11T14:21:32.845Z,101989.91
2019-04-11T14:24:20.533Z,101995.95
2019-04-11T14:27:00.866Z,101989.37
2019-04-11T14:29:33.498Z,101980.11
2019-04-11T14:32:04.885Z,101982.56
2019-04-11T14:34:52.464Z,101976.20
2019-04-11T14:37:39.167Z,101969.89
2019-04-11T14:40:30.147Z,101975.60
2019-04-11T14:43:17.081Z,101980.77
2019-04-11T14:45:52.360Z,101971.69
2019-04-11T14:48:40.633Z,101970.08
2019-04-11T14:51:15.855Z,101968.67
2019-04-11T14:53:46.515Z,101961.84
2019-04-11T14:56:17.379Z,101972.55
2019-04-11T14:59:04.248Z,101967.91
2019-04-11T15:01:34.026Z,101967.56
2019-04-11T15:04:20.889Z,101966.83
2019-04-11T15:06:55.076Z,101966.62
2019-04-11T15:09:42.251Z,101966.91
2019-04-11T15:12:25.749Z,101960.72
2019-04-11T15:15:12.166Z,101973.25
2019-04-11T15:17:42.484Z,101968.91
2019-04-11T15:20:12.627Z,101971.64
2019-04-11T15:22:46.863Z,101966.51
2019-04-11T15:25:28.080Z,101978.65
2019-04-11T15:28:02.106Z,101974.09
2019-04-11T15:30:43.390Z,101974.33
2019-04-11T15:33:13.069Z,101970.06
2019-04-11T15:35:44.539Z,101973.41
2019-04-11T15:38:31.659Z,101971.98
2019-04-11T15:41:02.602Z,101986.59
2019-04-11T15:43:50.179Z,101987.32
2019-04-11T15:46:24.646Z,101985.25
2019-04-11T15:49:19.666Z,101987.66
2019-04-11T15:51:40.800Z,101985.47
2019-04-11T15:54:13.229Z,101992.56
2019-04-11T15:57:00.233Z,102003.00
2019-04-11T15:59:38.458Z,102004.47
2019-04-11T16:02:26.483Z,101995.91
2019-04-11T16:04:59.341Z,101990.25
2019-04-11T16:07:37.336Z,101996.43
2019-04-11T16:10:11.758Z,101994.32
2019-04-11T16:12:57.490Z,102004.76
2019-04-11T16:15:36.843Z,102003.17
2019-04-11T16:18:20.628Z,101997.28
2019-04-11T16:20:52.126Z,101993.45
2019-04-11T16:23:25.928Z,101996.34
2019-04-11T16:25:55.009Z,101998.74
2019-04-11T16:28:30.083Z,101999.87
2019-04-11T16:30:59.852Z,102003.66
2019-04-11T16:33:33.897Z,101998.09
2019-04-11T16:36:05.330Z,101991.48
2019-04-11T16:38:36.690Z,101999.73
2019-04-11T16:41:24.511Z,102007.89
2019-04-11T16:44:01.980Z,101999.59
2019-04-11T16:46:40.173Z,102000.47
2019-04-11T16:49:09.864Z,102001.75
2019-04-11T16:51:39.671Z,102012.44
2019-04-11T16:54:10.299Z,102007.75
2019-04-11T16:56:41.709Z,102018.89
2019-04-11T16:59:12.576Z,102017.92
2019-04-11T17:01:42.246Z,102010.24
2019-04-11T17:04:11.940Z,102008.04
2019-04-11T17:06:41.358Z,102009.48
2019-04-11T17:09:31.128Z,102012.34
2019-04-11T17:12:00.845Z,102015.42
2019-04-11T17:14:33.101Z,102016.39
2019-04-11T17:17:14.253Z,102015.07
2019-04-11T17:19:36.004Z,102020.86
2019-04-11T17:22:05.374Z,102017.63
2019-04-11T17:24:35.080Z,102018.89
2019-04-11T17:27:05.796Z,102018.78
2019-04-11T17:29:35.600Z,102024.81
2019-04-11T17:32:05.400Z,102032.34
2019-04-11T17:34:35.177Z,102031.98
2019-04-11T17:37:04.967Z,102038.48
2019-04-11T17:39:36.826Z,102034.38
2019-04-11T17:42:06.184Z,102037.55
2019-04-11T17:44:35.877Z,102037.34
2019-04-11T17:47:05.721Z,102037.55
2019-04-11T17:49:35.456Z,102046.14
2019-04-11T17:52:06.936Z,102049.56
2019-04-11T17:54:36.674Z,102046.70
2019-04-11T17:57:06.533Z,102059.88
2019-04-11T17:59:36.181Z,102053.47
2019-04-11T18:02:10.147Z,102062.12
2019-04-11T18:04:39.143Z,102054.05
2019-04-11T18:07:08.977Z,102061.70
2019-04-11T18:09:38.745Z,102063.03
2019-04-11T18:12:08.434Z,102064.17
2019-04-11T18:14:38.076Z,102067.37
2019-04-11T18:17:07.846Z,102062.97
2019-04-11T18:19:37.919Z,102074.31
2019-04-11T18:22:11.042Z,102075.22
2019-04-11T18:24:39.693Z,102078.82
2019-04-11T18:27:09.338Z,102072.42
2019-04-11T18:29:39.289Z,102082.72
2019-04-11T18:32:09.231Z,102081.78
2019-04-11T18:34:39.004Z,102086.52
2019-04-11T18:37:08.746Z,102091.56
2019-04-11T18:39:38.422Z,102090.17
2019-04-11T18:42:08.340Z,102090.41
2019-04-11T18:44:37.977Z,102100.44
2019-04-11T18:47:07.755Z,102096.69
2019-04-11T18:49:37.602Z,102104.08
2019-04-11T18:52:18.978Z,102103.60
2019-04-11T18:54:39.260Z,102107.83
2019-04-11T18:57:08.999Z,102110.14
2019-04-11T18:59:38.796Z,102107.01
2019-04-11T19:02:10.333Z,102108.99
2019-04-11T19:04:42.328Z,102100.66
2019-04-11T19:07:13.239Z,102114.86
2019-04-11T19:09:43.836Z,102116.32
2019-04-11T19:12:15.933Z,102125.14
2019-04-11T19:14:45.930Z,102127.18
2019-04-11T19:17:16.466Z,102127.18
2019-04-11T19:19:48.627Z,102126.60
2019-04-11T19:22:19.701Z,102124.66
2019-04-11T19:24:49.277Z,102128.77
2019-04-11T19:27:20.512Z,102133.50
2019-04-11T19:29:50.413Z,102139.66
2019-04-11T19:32:20.260Z,102141.73
2019-04-11T19:34:49.982Z,102132.78
2019-04-11T19:37:19.712Z,102142.24
2019-04-11T19:39:49.346Z,102140.80
2019-04-11T19:42:19.807Z,102142.41
2019-04-11T19:44:50.400Z,102147.12
2019-04-11T19:47:21.652Z,102146.15
2019-04-11T19:49:52.068Z,102144.48
2019-04-11T19:52:21.909Z,102135.77
2019-04-11T19:54:51.666Z,102148.22
2019-04-11T19:57:21.371Z,102145.30
2019-04-11T19:59:51.069Z,102145.08
2019-04-11T20:02:23.143Z,102150.61
2019-04-11T20:04:52.188Z,102149.41
2019-04-11T20:07:21.990Z,102149.59
2019-04-11T20:09:51.773Z,102146.63
2019-04-11T20:12:21.442Z,102152.91
2019-04-11T20:14:51.141Z,102154.59
2019-04-11T20:17:20.848Z,102149.36
2019-04-11T20:20:00.819Z,102156.73
2019-04-11T20:22:21.984Z,102155.76
2019-04-11T20:24:51.687Z,102153.77
2019-04-11T20:27:21.430Z,102148.94
2019-04-11T20:29:55.084Z,102145.82
2019-04-11T20:32:22.539Z,102149.91
2019-04-11T20:34:52.201Z,102150.96
2019-04-11T20:37:24.418Z,102152.75
2019-04-11T20:39:53.521Z,102148.47
2019-04-11T20:42:24.300Z,102150.53
2019-04-11T20:44:58.302Z,102145.19
2019-04-11T20:47:25.888Z,102149.75
2019-04-11T20:49:55.659Z,102144.25
2019-04-11T20:52:25.375Z,102146.85
2019-04-11T20:54:55.004Z,102141.86
2019-04-11T20:57:25.889Z,102149.30
2019-04-11T20:59:56.073Z,102146.80
2019-04-11T21:02:28.380Z,102150.88
2019-04-11T21:04:58.981Z,102153.48
2019-04-11T21:07:31.819Z,102154.14
2019-04-11T21:10:03.694Z,102157.71
2019-04-11T21:12:31.406Z,102157.36
2019-04-11T21:15:01.074Z,102155.56
2019-04-11T21:17:30.733Z,102159.42
2019-04-11T21:20:00.407Z,102157.98
2019-04-11T21:22:30.084Z,102157.61
2019-04-11T21:25:00.115Z,102160.97
2019-04-11T21:27:29.910Z,102159.39
2019-04-11T21:29:59.960Z,102158.17
2019-04-11T21:32:31.868Z,102163.33
2019-04-11T21:35:02.934Z,102162.97
2019-04-11T21:37:32.840Z,102161.34
2019-04-11T21:40:02.875Z,102172.98
2019-04-11T21:42:35.823Z,102170.52
2019-04-11T21:45:06.159Z,102165.05
2019-04-11T21:47:37.151Z,102169.37
2019-04-11T21:50:10.407Z,102176.22
2019-04-11T21:52:43.308Z,102174.52
2019-04-11T21:55:15.221Z,102173.35
2019-04-11T21:57:48.444Z,102176.08
2019-04-11T22:00:23.189Z,102176.23
2019-04-11T22:02:54.322Z,102178.73
2019-04-11T22:05:28.990Z,102176.69
2019-04-11T22:07:56.595Z,102177.88
2019-04-11T22:10:26.683Z,102176.09
2019-04-11T22:12:56.423Z,102173.45
2019-04-11T22:15:26.262Z,102175.77
2019-04-11T22:17:56.099Z,102176.05
2019-04-11T22:20:25.731Z,102172.72
2019-04-11T22:22:55.458Z,102175.90
2019-04-11T22:25:25.278Z,102180.97
2019-04-11T22:27:54.955Z,102181.70
2019-04-11T22:30:26.077Z,102184.21
2019-04-11T22:32:58.029Z,102184.07
2019-04-11T22:35:29.086Z,102185.03
2019-04-11T22:37:59.899Z,102186.13
2019-04-11T22:40:31.996Z,102185.76
2019-04-11T22:43:01.789Z,102188.03
2019-04-11T22:45:31.599Z,102199.58
2019-04-11T22:48:01.294Z,102201.28
2019-04-11T22:50:31.037Z,102187.81
2019-04-11T22:53:00.722Z,102185.22
2019-04-11T22:55:30.622Z,102186.49
2019-04-11T22:58:00.411Z,102185.76
2019-04-11T23:00:30.122Z,102188.91
2019-04-11T23:03:02.853Z,102188.69
2019-04-11T23:05:32.586Z,102183.34
2019-04-11T23:08:02.887Z,102190.09
2019-04-11T23:10:32.815Z,102184.35
2019-04-11T23:13:02.530Z,102185.03
2019-04-11T23:15:32.285Z,102188.83
2019-04-11T23:18:01.948Z,102188.01
2019-04-11T23:20:31.652Z,102188.77
2019-04-11T23:23:01.359Z,102186.35
2019-04-11T23:25:31.739Z,102195.39
2019-04-11T23:28:01.405Z,102194.58
2019-04-11T23:30:31.082Z,102198.18
2019-04-11T23:33:00.866Z,102197.95
2019-04-11T23:35:30.546Z,102195.76
2019-04-11T23:38:00.272Z,102201.92
2019-04-11T23:40:29.926Z,102205.11
2019-04-11T23:42:59.600Z,102203.84
2019-04-11T23:45:30.222Z,102210.09
2019-04-11T23:47:59.908Z,102209.87
2019-04-11T23:50:29.753Z,102216.99
2019-04-11T23:52:59.408Z,102212.88
2019-04-11T23:55:30.729Z,102215.98
2019-04-11T23:58:01.704Z,102219.95
